sensor_id;sensor_type;location;lat;lon;timestamp;P1;durP1;ratioP1;P2;durP2;ratioP2
2123;SDS011;1068;52.460;13.528;2023-10-13T00:00:37;3.77;;;2.23;;
2123;SDS011;1068;52.460;13.528;2023-10-13T00:03:05;3.20;;;2.50;;
2123;SDS011;1068;52.460;13.528;2023-10-13T00:05:40;3.27;;;2.43;;
2123;SDS011;1068;52.460;13.528;2023-10-13T00:08:08;4.53;;;2.67;;
2123;SDS011;1068;52.460;13.528;2023-10-13T00:10:35;2.63;;;2.20;;
2123;SDS011;1068;52.460;13.528;2023-10-13T00:13:02;2.87;;;2.47;;
2123;SDS011;1068;52.460;13.528;2023-10-13T00:15:39;2.13;;;2.03;;
2123;SDS011;1068;52.460;13.528;2023-10-13T00:18:20;2.13;;;2.03;;
2123;SDS011;1068;52.460;13.528;2023-10-13T00:20:47;2.90;;;2.00;;
2123;SDS011;1068;52.460;13.528;2023-10-13T00:23:15;3.97;;;2.50;;
2123;SDS011;1068;52.460;13.528;2023-10-13T00:25:45;3.10;;;2.30;;
2123;SDS011;1068;52.460;13.528;2023-10-13T00:28:15;3.47;;;2.40;;
2123;SDS011;1068;52.460;13.528;2023-10-13T00:30:49;3.07;;;2.80;;
2123;SDS011;1068;52.460;13.528;2023-10-13T00:33:17;2.53;;;2.07;;
2123;SDS011;1068;52.460;13.528;2023-10-13T00:35:47;5.00;;;2.40;;
2123;SDS011;1068;52.460;13.528;2023-10-13T00:38:16;3.37;;;2.70;;
2123;SDS011;1068;52.460;13.528;2023-10-13T00:40:44;4.60;;;2.57;;
2123;SDS011;1068;52.460;13.528;2023-10-13T00:43:17;3.40;;;2.40;;
2123;SDS011;1068;52.460;13.528;2023-10-13T00:46:04;3.30;;;2.80;;
2123;SDS011;1068;52.460;13.528;2023-10-13T00:48:34;2.57;;;2.37;;
2123;SDS011;1068;52.460;13.528;2023-10-13T00:51:07;2.50;;;2.30;;
2123;SDS011;1068;52.460;13.528;2023-10-13T00:53:43;2.53;;;2.33;;
2123;SDS011;1068;52.460;13.528;2023-10-13T00:56:09;2.83;;;2.63;;
2123;SDS011;1068;52.460;13.528;2023-10-13T00:58:44;4.73;;;3.23;;
2123;SDS011;1068;52.460;13.528;2023-10-13T01:01:12;2.50;;;2.30;;
2123;SDS011;1068;52.460;13.528;2023-10-13T01:03:47;2.83;;;2.43;;
2123;SDS011;1068;52.460;13.528;2023-10-13T01:06:14;5.77;;;2.50;;
2123;SDS011;1068;52.460;13.528;2023-10-13T01:08:42;2.43;;;2.23;;
2123;SDS011;1068;52.460;13.528;2023-10-13T01:11:10;4.63;;;2.43;;
2123;SDS011;1068;52.460;13.528;2023-10-13T01:13:36;2.37;;;2.17;;
2123;SDS011;1068;52.460;13.528;2023-10-13T01:16:03;3.50;;;2.60;;
2123;SDS011;1068;52.460;13.528;2023-10-13T01:18:30;4.70;;;2.50;;
2123;SDS011;1068;52.460;13.528;2023-10-13T01:20:57;3.23;;;2.93;;
2123;SDS011;1068;52.460;13.528;2023-10-13T01:23:26;2.70;;;2.50;;
2123;SDS011;1068;52.460;13.528;2023-10-13T01:26:02;3.03;;;2.47;;
2123;SDS011;1068;52.460;13.528;2023-10-13T01:28:30;3.53;;;3.00;;
2123;SDS011;1068;52.460;13.528;2023-10-13T01:31:09;3.17;;;2.87;;
2123;SDS011;1068;52.460;13.528;2023-10-13T01:33:36;3.37;;;3.07;;
2123;SDS011;1068;52.460;13.528;2023-10-13T01:36:03;5.80;;;3.50;;
2123;SDS011;1068;52.460;13.528;2023-10-13T01:38:33;5.47;;;3.40;;
2123;SDS011;1068;52.460;13.528;2023-10-13T01:41:04;4.50;;;3.53;;
2123;SDS011;1068;52.460;13.528;2023-10-13T01:43:30;9.13;;;4.13;;
2123;SDS011;1068;52.460;13.528;2023-10-13T01:45:57;4.93;;;3.67;;
2123;SDS011;1068;52.460;13.528;2023-10-13T01:48:23;5.73;;;3.90;;
2123;SDS011;1068;52.460;13.528;2023-10-13T01:50:50;3.93;;;3.57;;
2123;SDS011;1068;52.460;13.528;2023-10-13T01:53:20;6.43;;;3.90;;
2123;SDS011;1068;52.460;13.528;2023-10-13T01:55:49;7.30;;;4.30;;
2123;SDS011;1068;52.460;13.528;2023-10-13T01:58:15;4.83;;;4.37;;
2123;SDS011;1068;52.460;13.528;2023-10-13T02:00:47;5.57;;;4.10;;
2123;SDS011;1068;52.460;13.528;2023-10-13T02:03:13;6.47;;;3.60;;
2123;SDS011;1068;52.460;13.528;2023-10-13T02:05:41;6.27;;;4.00;;
2123;SDS011;1068;52.460;13.528;2023-10-13T02:08:11;5.47;;;4.20;;
2123;SDS011;1068;52.460;13.528;2023-10-13T02:10:42;4.57;;;3.40;;
2123;SDS011;1068;52.460;13.528;2023-10-13T02:13:12;4.27;;;3.97;;
2123;SDS011;1068;52.460;13.528;2023-10-13T02:15:42;4.60;;;3.70;;
2123;SDS011;1068;52.460;13.528;2023-10-13T02:18:09;6.57;;;4.27;;
2123;SDS011;1068;52.460;13.528;2023-10-13T02:20:36;5.03;;;4.30;;
2123;SDS011;1068;52.460;13.528;2023-10-13T02:23:08;4.33;;;4.00;;
2123;SDS011;1068;52.460;13.528;2023-10-13T02:25:35;5.63;;;4.63;;
2123;SDS011;1068;52.460;13.528;2023-10-13T02:28:07;9.03;;;4.67;;
2123;SDS011;1068;52.460;13.528;2023-10-13T02:30:39;4.97;;;4.57;;
2123;SDS011;1068;52.460;13.528;2023-10-13T02:33:10;7.13;;;4.70;;
2123;SDS011;1068;52.460;13.528;2023-10-13T02:35:38;6.57;;;5.03;;
2123;SDS011;1068;52.460;13.528;2023-10-13T02:38:08;5.33;;;4.90;;
2123;SDS011;1068;52.460;13.528;2023-10-13T02:40:36;6.77;;;5.20;;
2123;SDS011;1068;52.460;13.528;2023-10-13T02:43:02;5.67;;;5.17;;
2123;SDS011;1068;52.460;13.528;2023-10-13T02:45:30;6.03;;;5.20;;
2123;SDS011;1068;52.460;13.528;2023-10-13T02:47:57;6.60;;;4.83;;
2123;SDS011;1068;52.460;13.528;2023-10-13T02:50:39;5.70;;;4.63;;
2123;SDS011;1068;52.460;13.528;2023-10-13T02:53:09;5.93;;;5.33;;
2123;SDS011;1068;52.460;13.528;2023-10-13T02:55:38;8.10;;;5.27;;
2123;SDS011;1068;52.460;13.528;2023-10-13T02:58:04;10.00;;;6.47;;
2123;SDS011;1068;52.460;13.528;2023-10-13T03:00:33;7.87;;;6.00;;
2123;SDS011;1068;52.460;13.528;2023-10-13T03:03:01;7.13;;;6.43;;
2123;SDS011;1068;52.460;13.528;2023-10-13T03:05:28;10.57;;;6.30;;
2123;SDS011;1068;52.460;13.528;2023-10-13T03:07:56;8.50;;;5.90;;
2123;SDS011;1068;52.460;13.528;2023-10-13T03:10:23;6.13;;;5.53;;
2123;SDS011;1068;52.460;13.528;2023-10-13T03:12:54;7.50;;;6.70;;
2123;SDS011;1068;52.460;13.528;2023-10-13T03:15:21;6.57;;;5.43;;
2123;SDS011;1068;52.460;13.528;2023-10-13T03:17:54;7.80;;;6.70;;
2123;SDS011;1068;52.460;13.528;2023-10-13T03:20:24;8.30;;;7.23;;
2123;SDS011;1068;52.460;13.528;2023-10-13T03:22:56;7.20;;;6.60;;
2123;SDS011;1068;52.460;13.528;2023-10-13T03:25:23;6.53;;;5.87;;
2123;SDS011;1068;52.460;13.528;2023-10-13T03:27:54;11.83;;;7.53;;
2123;SDS011;1068;52.460;13.528;2023-10-13T03:30:30;9.03;;;8.23;;
2123;SDS011;1068;52.460;13.528;2023-10-13T03:33:01;10.47;;;7.97;;
2123;SDS011;1068;52.460;13.528;2023-10-13T03:35:34;9.53;;;7.83;;
2123;SDS011;1068;52.460;13.528;2023-10-13T03:38:06;10.00;;;8.00;;
2123;SDS011;1068;52.460;13.528;2023-10-13T03:40:43;8.20;;;7.20;;
2123;SDS011;1068;52.460;13.528;2023-10-13T03:43:31;8.50;;;7.07;;
2123;SDS011;1068;52.460;13.528;2023-10-13T03:46:09;11.17;;;7.40;;
2123;SDS011;1068;52.460;13.528;2023-10-13T03:48:36;10.43;;;7.90;;
2123;SDS011;1068;52.460;13.528;2023-10-13T03:51:18;15.77;;;9.47;;
2123;SDS011;1068;52.460;13.528;2023-10-13T03:53:45;9.23;;;7.60;;
2123;SDS011;1068;52.460;13.528;2023-10-13T03:56:18;8.43;;;7.23;;
2123;SDS011;1068;52.460;13.528;2023-10-13T03:58:52;11.67;;;8.80;;
2123;SDS011;1068;52.460;13.528;2023-10-13T04:01:22;12.47;;;9.47;;
2123;SDS011;1068;52.460;13.528;2023-10-13T04:03:56;12.27;;;9.03;;
2123;SDS011;1068;52.460;13.528;2023-10-13T04:06:29;11.10;;;9.10;;
2123;SDS011;1068;52.460;13.528;2023-10-13T04:09:24;10.73;;;8.97;;
2123;SDS011;1068;52.460;13.528;2023-10-13T04:12:08;9.80;;;8.80;;
2123;SDS011;1068;52.460;13.528;2023-10-13T04:15:07;11.50;;;9.30;;
2123;SDS011;1068;52.460;13.528;2023-10-13T04:17:43;10.13;;;9.13;;
2123;SDS011;1068;52.460;13.528;2023-10-13T04:20:11;9.27;;;8.37;;
2123;SDS011;1068;52.460;13.528;2023-10-13T04:22:56;9.93;;;8.60;;
2123;SDS011;1068;52.460;13.528;2023-10-13T04:25:41;11.67;;;10.47;;
2123;SDS011;1068;52.460;13.528;2023-10-13T04:28:28;11.93;;;8.80;;
2123;SDS011;1068;52.460;13.528;2023-10-13T04:31:03;11.30;;;10.10;;
2123;SDS011;1068;52.460;13.528;2023-10-13T04:33:37;11.00;;;9.90;;
2123;SDS011;1068;52.460;13.528;2023-10-13T04:36:16;12.47;;;9.50;;
2123;SDS011;1068;52.460;13.528;2023-10-13T04:38:47;12.53;;;9.47;;
2123;SDS011;1068;52.460;13.528;2023-10-13T04:41:26;13.07;;;10.97;;
2123;SDS011;1068;52.460;13.528;2023-10-13T04:43:57;11.80;;;10.60;;
2123;SDS011;1068;52.460;13.528;2023-10-13T04:46:30;14.17;;;10.50;;
2123;SDS011;1068;52.460;13.528;2023-10-13T04:49:33;11.37;;;10.17;;
2123;SDS011;1068;52.460;13.528;2023-10-13T04:52:14;10.80;;;9.70;;
2123;SDS011;1068;52.460;13.528;2023-10-13T04:55:05;15.53;;;10.00;;
2123;SDS011;1068;52.460;13.528;2023-10-13T04:57:58;15.30;;;10.37;;
2123;SDS011;1068;52.460;13.528;2023-10-13T05:00:39;15.50;;;10.70;;
2123;SDS011;1068;52.460;13.528;2023-10-13T05:03:21;12.23;;;10.10;;
2123;SDS011;1068;52.460;13.528;2023-10-13T05:06:08;15.50;;;11.87;;
2123;SDS011;1068;52.460;13.528;2023-10-13T05:08:59;11.80;;;10.60;;
2123;SDS011;1068;52.460;13.528;2023-10-13T05:11:45;12.97;;;11.57;;
2123;SDS011;1068;52.460;13.528;2023-10-13T05:14:30;12.87;;;10.70;;
2123;SDS011;1068;52.460;13.528;2023-10-13T05:17:14;12.60;;;10.00;;
2123;SDS011;1068;52.460;13.528;2023-10-13T05:19:59;13.43;;;10.57;;
2123;SDS011;1068;52.460;13.528;2023-10-13T05:22:43;14.70;;;11.10;;
2123;SDS011;1068;52.460;13.528;2023-10-13T05:25:42;13.67;;;12.27;;
2123;SDS011;1068;52.460;13.528;2023-10-13T05:28:28;10.77;;;9.67;;
2123;SDS011;1068;52.460;13.528;2023-10-13T05:31:13;12.57;;;11.27;;
2123;SDS011;1068;52.460;13.528;2023-10-13T05:33:58;14.87;;;10.37;;
2123;SDS011;1068;52.460;13.528;2023-10-13T05:36:42;15.57;;;10.77;;
2123;SDS011;1068;52.460;13.528;2023-10-13T05:39:27;12.70;;;10.87;;
2123;SDS011;1068;52.460;13.528;2023-10-13T05:42:11;13.27;;;11.97;;
2123;SDS011;1068;52.460;13.528;2023-10-13T05:44:57;13.60;;;10.57;;
2123;SDS011;1068;52.460;13.528;2023-10-13T05:47:48;16.27;;;12.40;;
2123;SDS011;1068;52.460;13.528;2023-10-13T05:50:26;16.40;;;11.50;;
2123;SDS011;1068;52.460;13.528;2023-10-13T05:53:10;13.53;;;10.87;;
2123;SDS011;1068;52.460;13.528;2023-10-13T05:55:59;12.73;;;11.30;;
2123;SDS011;1068;52.460;13.528;2023-10-13T05:58:44;11.87;;;10.70;;
2123;SDS011;1068;52.460;13.528;2023-10-13T06:01:30;12.07;;;9.67;;
2123;SDS011;1068;52.460;13.528;2023-10-13T06:04:14;15.00;;;10.67;;
2123;SDS011;1068;52.460;13.528;2023-10-13T06:06:59;14.37;;;11.60;;
2123;SDS011;1068;52.460;13.528;2023-10-13T06:09:44;18.47;;;10.80;;
2123;SDS011;1068;52.460;13.528;2023-10-13T06:12:30;12.30;;;11.13;;
2123;SDS011;1068;52.460;13.528;2023-10-13T06:15:16;12.23;;;11.00;;
2123;SDS011;1068;52.460;13.528;2023-10-13T06:18:02;12.77;;;10.43;;
2123;SDS011;1068;52.460;13.528;2023-10-13T06:21:00;14.50;;;12.17;;
2123;SDS011;1068;52.460;13.528;2023-10-13T06:23:59;15.20;;;10.63;;
2123;SDS011;1068;52.460;13.528;2023-10-13T06:26:55;14.93;;;12.63;;
2123;SDS011;1068;52.460;13.528;2023-10-13T06:29:40;13.93;;;12.23;;
2123;SDS011;1068;52.460;13.528;2023-10-13T06:32:11;12.70;;;11.37;;
2123;SDS011;1068;52.460;13.528;2023-10-13T06:34:42;12.73;;;10.10;;
2123;SDS011;1068;52.460;13.528;2023-10-13T06:37:10;13.40;;;11.03;;
2123;SDS011;1068;52.460;13.528;2023-10-13T06:39:48;15.17;;;11.17;;
2123;SDS011;1068;52.460;13.528;2023-10-13T06:42:15;10.20;;;9.20;;
2123;SDS011;1068;52.460;13.528;2023-10-13T06:44:44;14.73;;;10.43;;
2123;SDS011;1068;52.460;13.528;2023-10-13T06:47:11;12.83;;;10.60;;
2123;SDS011;1068;52.460;13.528;2023-10-13T06:49:38;18.20;;;11.20;;
2123;SDS011;1068;52.460;13.528;2023-10-13T06:52:06;12.13;;;10.93;;
2123;SDS011;1068;52.460;13.528;2023-10-13T06:54:33;12.00;;;10.00;;
2123;SDS011;1068;52.460;13.528;2023-10-13T06:57:00;12.50;;;10.70;;
2123;SDS011;1068;52.460;13.528;2023-10-13T06:59:28;12.27;;;10.77;;
2123;SDS011;1068;52.460;13.528;2023-10-13T07:01:57;12.00;;;10.00;;
2123;SDS011;1068;52.460;13.528;2023-10-13T07:04:29;10.50;;;9.47;;
2123;SDS011;1068;52.460;13.528;2023-10-13T07:06:56;11.20;;;9.80;;
2123;SDS011;1068;52.460;13.528;2023-10-13T07:09:27;10.70;;;9.67;;
2123;SDS011;1068;52.460;13.528;2023-10-13T07:12:05;11.13;;;8.97;;
2123;SDS011;1068;52.460;13.528;2023-10-13T07:14:41;12.20;;;9.50;;
2123;SDS011;1068;52.460;13.528;2023-10-13T07:17:08;9.87;;;9.00;;
2123;SDS011;1068;52.460;13.528;2023-10-13T07:19:36;10.53;;;9.53;;
2123;SDS011;1068;52.460;13.528;2023-10-13T07:22:18;11.10;;;9.50;;
2123;SDS011;1068;52.460;13.528;2023-10-13T07:24:47;10.20;;;9.30;;
2123;SDS011;1068;52.460;13.528;2023-10-13T07:27:14;11.77;;;9.67;;
2123;SDS011;1068;52.460;13.528;2023-10-13T07:29:47;10.30;;;9.23;;
2123;SDS011;1068;52.460;13.528;2023-10-13T07:32:19;10.90;;;9.80;;
2123;SDS011;1068;52.460;13.528;2023-10-13T07:34:51;10.83;;;9.43;;
2123;SDS011;1068;52.460;13.528;2023-10-13T07:37:20;10.43;;;9.30;;
2123;SDS011;1068;52.460;13.528;2023-10-13T07:39:51;11.57;;;9.87;;
2123;SDS011;1068;52.460;13.528;2023-10-13T07:42:22;10.33;;;8.50;;
2123;SDS011;1068;52.460;13.528;2023-10-13T07:44:55;12.63;;;8.73;;
2123;SDS011;1068;52.460;13.528;2023-10-13T07:47:22;10.10;;;9.20;;
2123;SDS011;1068;52.460;13.528;2023-10-13T07:49:51;9.10;;;8.20;;
2123;SDS011;1068;52.460;13.528;2023-10-13T07:52:21;13.80;;;10.43;;
2123;SDS011;1068;52.460;13.528;2023-10-13T07:55:03;11.13;;;8.43;;
2123;SDS011;1068;52.460;13.528;2023-10-13T07:57:45;11.83;;;9.27;;
2123;SDS011;1068;52.460;13.528;2023-10-13T08:00:22;9.47;;;8.67;;
2123;SDS011;1068;52.460;13.528;2023-10-13T08:02:57;13.23;;;9.00;;
2123;SDS011;1068;52.460;13.528;2023-10-13T08:05:44;9.83;;;8.70;;
2123;SDS011;1068;52.460;13.528;2023-10-13T08:08:23;8.93;;;8.03;;
2123;SDS011;1068;52.460;13.528;2023-10-13T08:11:01;8.30;;;7.50;;
2123;SDS011;1068;52.460;13.528;2023-10-13T08:13:33;10.73;;;8.40;;
2123;SDS011;1068;52.460;13.528;2023-10-13T08:16:02;14.37;;;8.00;;
2123;SDS011;1068;52.460;13.528;2023-10-13T08:18:33;8.53;;;7.33;;
2123;SDS011;1068;52.460;13.528;2023-10-13T08:21:01;9.67;;;8.77;;
2123;SDS011;1068;52.460;13.528;2023-10-13T08:23:28;8.20;;;7.50;;
2123;SDS011;1068;52.460;13.528;2023-10-13T08:26:17;9.07;;;8.17;;
2123;SDS011;1068;52.460;13.528;2023-10-13T08:29:17;10.07;;;8.73;;
2123;SDS011;1068;52.460;13.528;2023-10-13T08:32:04;8.97;;;8.00;;
2123;SDS011;1068;52.460;13.528;2023-10-13T08:34:39;9.00;;;8.10;;
2123;SDS011;1068;52.460;13.528;2023-10-13T08:37:25;8.20;;;7.40;;
2123;SDS011;1068;52.460;13.528;2023-10-13T08:39:55;9.23;;;8.30;;
2123;SDS011;1068;52.460;13.528;2023-10-13T08:42:49;9.93;;;8.10;;
2123;SDS011;1068;52.460;13.528;2023-10-13T08:45:36;11.10;;;7.43;;
2123;SDS011;1068;52.460;13.528;2023-10-13T08:48:19;8.83;;;7.20;;
2123;SDS011;1068;52.460;13.528;2023-10-13T08:50:51;8.07;;;7.27;;
2123;SDS011;1068;52.460;13.528;2023-10-13T08:53:20;7.63;;;6.87;;
2123;SDS011;1068;52.460;13.528;2023-10-13T08:55:56;7.10;;;6.50;;
2123;SDS011;1068;52.460;13.528;2023-10-13T08:58:41;8.27;;;7.47;;
2123;SDS011;1068;52.460;13.528;2023-10-13T09:01:25;6.50;;;5.90;;
2123;SDS011;1068;52.460;13.528;2023-10-13T09:04:11;7.60;;;6.63;;
2123;SDS011;1068;52.460;13.528;2023-10-13T09:06:47;8.00;;;6.70;;
2123;SDS011;1068;52.460;13.528;2023-10-13T09:09:25;7.57;;;5.93;;
2123;SDS011;1068;52.460;13.528;2023-10-13T09:11:52;6.73;;;6.00;;
2123;SDS011;1068;52.460;13.528;2023-10-13T09:14:33;7.80;;;6.10;;
2123;SDS011;1068;52.460;13.528;2023-10-13T09:17:03;6.70;;;6.10;;
2123;SDS011;1068;52.460;13.528;2023-10-13T09:19:50;6.33;;;5.80;;
2123;SDS011;1068;52.460;13.528;2023-10-13T09:22:24;7.80;;;6.20;;
2123;SDS011;1068;52.460;13.528;2023-10-13T09:25:00;7.37;;;5.50;;
2123;SDS011;1068;52.460;13.528;2023-10-13T09:27:28;6.37;;;5.60;;
2123;SDS011;1068;52.460;13.528;2023-10-13T09:29:59;6.40;;;5.60;;
2123;SDS011;1068;52.460;13.528;2023-10-13T09:32:31;6.47;;;5.73;;
2123;SDS011;1068;52.460;13.528;2023-10-13T09:35:10;5.40;;;5.00;;
2123;SDS011;1068;52.460;13.528;2023-10-13T09:37:38;6.67;;;5.53;;
2123;SDS011;1068;52.460;13.528;2023-10-13T09:40:06;6.10;;;5.60;;
2123;SDS011;1068;52.460;13.528;2023-10-13T09:42:50;5.63;;;5.00;;
2123;SDS011;1068;52.460;13.528;2023-10-13T09:45:18;6.87;;;6.20;;
2123;SDS011;1068;52.460;13.528;2023-10-13T09:47:52;8.03;;;5.30;;
2123;SDS011;1068;52.460;13.528;2023-10-13T09:50:22;11.33;;;6.50;;
2123;SDS011;1068;52.460;13.528;2023-10-13T09:52:50;7.50;;;5.30;;
2123;SDS011;1068;52.460;13.528;2023-10-13T09:55:19;6.50;;;5.90;;
2123;SDS011;1068;52.460;13.528;2023-10-13T09:57:50;7.57;;;6.03;;
2123;SDS011;1068;52.460;13.528;2023-10-13T10:00:23;6.23;;;5.63;;
2123;SDS011;1068;52.460;13.528;2023-10-13T10:03:09;8.00;;;6.43;;
2123;SDS011;1068;52.460;13.528;2023-10-13T10:06:04;10.87;;;6.10;;
2123;SDS011;1068;52.460;13.528;2023-10-13T10:08:31;6.13;;;5.63;;
2123;SDS011;1068;52.460;13.528;2023-10-13T10:13:43;6.10;;;5.40;;
2123;SDS011;1068;52.460;13.528;2023-10-13T10:16:20;6.50;;;6.00;;
2123;SDS011;1068;52.460;13.528;2023-10-13T10:18:58;8.43;;;5.33;;
2123;SDS011;1068;52.460;13.528;2023-10-13T10:21:32;5.83;;;5.30;;
2123;SDS011;1068;52.460;13.528;2023-10-13T10:24:00;5.77;;;5.30;;
2123;SDS011;1068;52.460;13.528;2023-10-13T10:26:38;9.67;;;6.27;;
2123;SDS011;1068;52.460;13.528;2023-10-13T10:29:10;6.70;;;6.20;;
2123;SDS011;1068;52.460;13.528;2023-10-13T10:31:40;7.63;;;6.60;;
2123;SDS011;1068;52.460;13.528;2023-10-13T10:34:11;6.60;;;6.00;;
2123;SDS011;1068;52.460;13.528;2023-10-13T10:36:38;6.70;;;6.17;;
2123;SDS011;1068;52.460;13.528;2023-10-13T10:39:07;6.17;;;5.67;;
2123;SDS011;1068;52.460;13.528;2023-10-13T10:41:37;8.13;;;6.30;;
2123;SDS011;1068;52.460;13.528;2023-10-13T10:44:10;7.43;;;6.93;;
2123;SDS011;1068;52.460;13.528;2023-10-13T10:46:50;8.03;;;5.80;;
2123;SDS011;1068;52.460;13.528;2023-10-13T10:49:23;5.83;;;5.33;;
2123;SDS011;1068;52.460;13.528;2023-10-13T10:51:56;8.60;;;5.70;;
2123;SDS011;1068;52.460;13.528;2023-10-13T10:54:26;6.63;;;5.50;;
2123;SDS011;1068;52.460;13.528;2023-10-13T10:56:56;6.43;;;5.93;;
2123;SDS011;1068;52.460;13.528;2023-10-13T10:59:35;7.07;;;5.83;;
2123;SDS011;1068;52.460;13.528;2023-10-13T11:02:05;5.97;;;5.43;;
2123;SDS011;1068;52.460;13.528;2023-10-13T11:04:33;8.43;;;5.77;;
2123;SDS011;1068;52.460;13.528;2023-10-13T11:07:05;7.10;;;5.60;;
2123;SDS011;1068;52.460;13.528;2023-10-13T11:09:33;6.70;;;6.00;;
2123;SDS011;1068;52.460;13.528;2023-10-13T11:12:11;5.90;;;5.13;;
2123;SDS011;1068;52.460;13.528;2023-10-13T11:14:48;5.47;;;4.97;;
2123;SDS011;1068;52.460;13.528;2023-10-13T11:17:27;11.63;;;6.00;;
2123;SDS011;1068;52.460;13.528;2023-10-13T11:20:10;6.37;;;5.77;;
2123;SDS011;1068;52.460;13.528;2023-10-13T11:22:50;6.10;;;5.60;;
2123;SDS011;1068;52.460;13.528;2023-10-13T11:25:21;6.53;;;5.93;;
2123;SDS011;1068;52.460;13.528;2023-10-13T11:27:55;8.83;;;7.33;;
2123;SDS011;1068;52.460;13.528;2023-10-13T11:30:25;6.50;;;5.70;;
2123;SDS011;1068;52.460;13.528;2023-10-13T11:33:00;5.50;;;5.10;;
2123;SDS011;1068;52.460;13.528;2023-10-13T11:35:30;6.80;;;6.07;;
2123;SDS011;1068;52.460;13.528;2023-10-13T11:38:14;7.57;;;6.07;;
2123;SDS011;1068;52.460;13.528;2023-10-13T11:40:50;6.50;;;6.00;;
2123;SDS011;1068;52.460;13.528;2023-10-13T11:43:32;10.50;;;6.00;;
2123;SDS011;1068;52.460;13.528;2023-10-13T11:46:10;6.67;;;6.07;;
2123;SDS011;1068;52.460;13.528;2023-10-13T11:48:40;6.53;;;5.47;;
2123;SDS011;1068;52.460;13.528;2023-10-13T11:51:07;9.53;;;6.03;;
2123;SDS011;1068;52.460;13.528;2023-10-13T11:53:34;9.23;;;6.00;;
2123;SDS011;1068;52.460;13.528;2023-10-13T11:56:01;6.53;;;6.03;;
2123;SDS011;1068;52.460;13.528;2023-10-13T11:58:33;6.47;;;5.80;;
2123;SDS011;1068;52.460;13.528;2023-10-13T12:01:00;6.80;;;5.70;;
2123;SDS011;1068;52.460;13.528;2023-10-13T12:03:46;8.33;;;6.07;;
2123;SDS011;1068;52.460;13.528;2023-10-13T12:06:32;7.30;;;6.00;;
2123;SDS011;1068;52.460;13.528;2023-10-13T12:09:11;6.93;;;6.10;;
2123;SDS011;1068;52.460;13.528;2023-10-13T12:11:57;9.63;;;6.40;;
2123;SDS011;1068;52.460;13.528;2023-10-13T12:14:27;6.10;;;5.60;;
2123;SDS011;1068;52.460;13.528;2023-10-13T12:16:55;7.13;;;6.00;;
2123;SDS011;1068;52.460;13.528;2023-10-13T12:19:29;12.03;;;5.90;;
2123;SDS011;1068;52.460;13.528;2023-10-13T12:21:59;7.40;;;5.73;;
2123;SDS011;1068;52.460;13.528;2023-10-13T12:24:30;6.77;;;5.63;;
2123;SDS011;1068;52.460;13.528;2023-10-13T12:27:05;7.70;;;5.90;;
2123;SDS011;1068;52.460;13.528;2023-10-13T12:29:43;5.50;;;5.00;;
2123;SDS011;1068;52.460;13.528;2023-10-13T12:32:11;6.50;;;5.90;;
2123;SDS011;1068;52.460;13.528;2023-10-13T12:34:40;7.77;;;5.07;;
2123;SDS011;1068;52.460;13.528;2023-10-13T12:37:42;6.30;;;4.97;;
2123;SDS011;1068;52.460;13.528;2023-10-13T12:40:29;7.93;;;5.17;;
2123;SDS011;1068;52.460;13.528;2023-10-13T12:43:14;6.87;;;5.07;;
2123;SDS011;1068;52.460;13.528;2023-10-13T12:45:58;5.77;;;5.30;;
2123;SDS011;1068;52.460;13.528;2023-10-13T12:48:43;7.73;;;6.27;;
2123;SDS011;1068;52.460;13.528;2023-10-13T12:51:30;7.80;;;4.80;;
2123;SDS011;1068;52.460;13.528;2023-10-13T12:54:15;7.63;;;5.43;;
2123;SDS011;1068;52.460;13.528;2023-10-13T12:56:48;6.87;;;5.00;;
2123;SDS011;1068;52.460;13.528;2023-10-13T12:59:21;8.03;;;6.00;;
2123;SDS011;1068;52.460;13.528;2023-10-13T13:01:51;6.57;;;5.30;;
2123;SDS011;1068;52.460;13.528;2023-10-13T13:04:18;5.53;;;5.00;;
2123;SDS011;1068;52.460;13.528;2023-10-13T13:06:47;6.33;;;4.63;;
2123;SDS011;1068;52.460;13.528;2023-10-13T13:09:14;6.37;;;5.10;;
2123;SDS011;1068;52.460;13.528;2023-10-13T13:11:50;8.23;;;5.90;;
2123;SDS011;1068;52.460;13.528;2023-10-13T13:14:17;9.33;;;4.70;;
2123;SDS011;1068;52.460;13.528;2023-10-13T13:16:44;8.17;;;5.67;;
2123;SDS011;1068;52.460;13.528;2023-10-13T13:19:13;8.80;;;5.00;;
2123;SDS011;1068;52.460;13.528;2023-10-13T13:21:50;7.60;;;5.33;;
2123;SDS011;1068;52.460;13.528;2023-10-13T13:24:17;5.83;;;4.97;;
2123;SDS011;1068;52.460;13.528;2023-10-13T13:26:44;11.07;;;6.17;;
2123;SDS011;1068;52.460;13.528;2023-10-13T13:29:13;13.20;;;5.03;;
2123;SDS011;1068;52.460;13.528;2023-10-13T13:31:41;7.97;;;5.37;;
2123;SDS011;1068;52.460;13.528;2023-10-13T13:34:09;10.43;;;5.27;;
2123;SDS011;1068;52.460;13.528;2023-10-13T13:36:37;10.33;;;5.13;;
2123;SDS011;1068;52.460;13.528;2023-10-13T13:39:10;11.33;;;5.67;;
2123;SDS011;1068;52.460;13.528;2023-10-13T13:41:42;12.50;;;5.60;;
2123;SDS011;1068;52.460;13.528;2023-10-13T13:44:09;11.53;;;5.13;;
2123;SDS011;1068;52.460;13.528;2023-10-13T13:46:40;6.00;;;4.73;;
2123;SDS011;1068;52.460;13.528;2023-10-13T13:49:07;7.20;;;5.30;;
2123;SDS011;1068;52.460;13.528;2023-10-13T13:51:42;8.00;;;4.53;;
2123;SDS011;1068;52.460;13.528;2023-10-13T13:54:17;6.80;;;5.33;;
2123;SDS011;1068;52.460;13.528;2023-10-13T13:56:45;6.70;;;4.53;;
2123;SDS011;1068;52.460;13.528;2023-10-13T13:59:12;7.80;;;5.60;;
2123;SDS011;1068;52.460;13.528;2023-10-13T14:01:41;5.10;;;4.70;;
2123;SDS011;1068;52.460;13.528;2023-10-13T14:04:09;10.50;;;5.30;;
2123;SDS011;1068;52.460;13.528;2023-10-13T14:06:36;10.70;;;5.20;;
2123;SDS011;1068;52.460;13.528;2023-10-13T14:09:04;5.67;;;5.07;;
2123;SDS011;1068;52.460;13.528;2023-10-13T14:11:41;5.33;;;4.90;;
2123;SDS011;1068;52.460;13.528;2023-10-13T14:14:25;6.30;;;4.87;;
2123;SDS011;1068;52.460;13.528;2023-10-13T14:16:58;7.57;;;5.20;;
2123;SDS011;1068;52.460;13.528;2023-10-13T14:19:31;7.63;;;5.20;;
2123;SDS011;1068;52.460;13.528;2023-10-13T14:21:58;6.67;;;4.60;;
2123;SDS011;1068;52.460;13.528;2023-10-13T14:24:31;8.90;;;5.10;;
2123;SDS011;1068;52.460;13.528;2023-10-13T14:27:01;8.03;;;4.90;;
2123;SDS011;1068;52.460;13.528;2023-10-13T14:29:33;7.77;;;4.37;;
2123;SDS011;1068;52.460;13.528;2023-10-13T14:32:05;8.77;;;4.53;;
2123;SDS011;1068;52.460;13.528;2023-10-13T14:34:32;7.17;;;4.70;;
2123;SDS011;1068;52.460;13.528;2023-10-13T14:37:00;8.23;;;4.80;;
2123;SDS011;1068;52.460;13.528;2023-10-13T14:39:29;5.83;;;5.10;;
2123;SDS011;1068;52.460;13.528;2023-10-13T14:42:00;6.80;;;4.73;;
2123;SDS011;1068;52.460;13.528;2023-10-13T14:44:29;10.33;;;5.83;;
2123;SDS011;1068;52.460;13.528;2023-10-13T14:46:56;9.40;;;4.50;;
2123;SDS011;1068;52.460;13.528;2023-10-13T14:49:23;7.50;;;4.97;;
2123;SDS011;1068;52.460;13.528;2023-10-13T14:51:50;8.80;;;5.10;;
2123;SDS011;1068;52.460;13.528;2023-10-13T14:54:19;8.10;;;5.30;;
2123;SDS011;1068;52.460;13.528;2023-10-13T14:56:57;12.33;;;4.97;;
2123;SDS011;1068;52.460;13.528;2023-10-13T14:59:25;10.53;;;5.33;;
2123;SDS011;1068;52.460;13.528;2023-10-13T15:01:57;9.90;;;5.77;;
2123;SDS011;1068;52.460;13.528;2023-10-13T15:04:24;6.17;;;5.00;;
2123;SDS011;1068;52.460;13.528;2023-10-13T15:06:53;9.77;;;5.30;;
2123;SDS011;1068;52.460;13.528;2023-10-13T15:09:20;8.50;;;5.40;;
2123;SDS011;1068;52.460;13.528;2023-10-13T15:11:49;9.70;;;5.43;;
2123;SDS011;1068;52.460;13.528;2023-10-13T15:14:18;6.93;;;4.87;;
2123;SDS011;1068;52.460;13.528;2023-10-13T15:16:49;6.67;;;5.27;;
2123;SDS011;1068;52.460;13.528;2023-10-13T15:19:17;8.40;;;5.63;;
2123;SDS011;1068;52.460;13.528;2023-10-13T15:21:44;7.00;;;4.97;;
2123;SDS011;1068;52.460;13.528;2023-10-13T15:24:14;8.47;;;5.47;;
2123;SDS011;1068;52.460;13.528;2023-10-13T15:26:42;8.80;;;5.27;;
2123;SDS011;1068;52.460;13.528;2023-10-13T15:29:13;14.03;;;5.67;;
2123;SDS011;1068;52.460;13.528;2023-10-13T15:31:41;8.23;;;5.67;;
2123;SDS011;1068;52.460;13.528;2023-10-13T15:34:20;8.43;;;5.50;;
2123;SDS011;1068;52.460;13.528;2023-10-13T15:36:48;8.23;;;5.67;;
2123;SDS011;1068;52.460;13.528;2023-10-13T15:39:17;9.37;;;4.93;;